Umea Robacksdalen, Sweden

8:41 AM CEST on July 30, 2016 (GMT +0200)
Boleang, Umeaa, Sweden | | Change Station

Elev 40 ft 63.82 °N, 20.22 °E | Updated 58 seconds ago

Scattered Clouds
Scattered Clouds
67.6 °F
Feels Like 67.6 °F
N
3.1
Wind Variable Wind from SE
Gusts 4.5 mph

Today
High -- | Low -- °F
--% Chance of Precip.
Yesterday
High -- | Low -- °F
Precip. -- in
Pressure 29.71 in
Visibility 6.2 miles
Clouds Few 800 ft
Scattered Clouds 19000 ft
Dew Point 61 °F
Humidity 79%
Rainfall 0.00 in
Snow Depth Not available.
3:43 AM 9:44 PM
Waning Crescent, 15% visible
METAR ESNU 300620Z 12006KT 9999 FEW008 SCT190 19/19 Q1006
Pressure 29.71 in
Visibility 6.2 miles
Clouds Few 800 ft
Scattered Clouds 19000 ft
Dew Point 61 °F
Humidity 79%
Rainfall 0.00 in
Snow Depth Not available.
3:43 AM 9:44 PM
Waning Crescent, 15% visible
METAR ESNU 300620Z 12006KT 9999 FEW008 SCT190 19/19 Q1006

10-Day Weather Forecast

×

Almanac

Astronomy

Jul. 30, 2016 Rise Set
Actual Time
Civil Twilight
Nautical Twilight
Astronomical Twilight
Moon
Length of Visible Light
Length of Day
Tomorrow will be .
, % of the Moon is Illuminated

Today's Extremes

Country Highs Country Lows

Community

WunderPhotos

Upload Photos

1,928,508 photos uploaded!

WunderBlog® & News

Nearby

Air Quality

  Air Quality AQ Index Pollutant
Not available.

Snow Depth

Station Depth Elevation

Earthquake Activity

City Distance Mag. Time & Date
Minimum magnitude displayed is 2.5.

Coastal Water Temperatures

Place Temperature

Stations

Nearby Weather Stations

Station Location Temp. Windchill Dew Point Humidity Wind Precip. Elev Updated Type